sensor_id;sensor_type;location;lat;lon;timestamp;P1;durP1;ratioP1;P2;durP2;ratioP2
37971;SDS011;23794;48.234;8.344;2023-04-22T00:01:08;2.15;;;1.10;;
37971;SDS011;23794;48.234;8.344;2023-04-22T00:03:35;3.08;;;1.30;;
37971;SDS011;23794;48.234;8.344;2023-04-22T00:06:02;4.18;;;1.30;;
37971;SDS011;23794;48.234;8.344;2023-04-22T00:08:29;1.63;;;1.05;;
37971;SDS011;23794;48.234;8.344;2023-04-22T00:10:55;3.30;;;1.10;;
37971;SDS011;23794;48.234;8.344;2023-04-22T00:13:22;1.55;;;1.05;;
37971;SDS011;23794;48.234;8.344;2023-04-22T00:15:49;2.05;;;1.00;;
37971;SDS011;23794;48.234;8.344;2023-04-22T00:18:16;4.20;;;1.13;;
37971;SDS011;23794;48.234;8.344;2023-04-22T00:20:43;3.08;;;1.20;;
37971;SDS011;23794;48.234;8.344;2023-04-22T00:23:10;3.17;;;1.10;;
37971;SDS011;23794;48.234;8.344;2023-04-22T00:25:38;2.20;;;1.17;;
37971;SDS011;23794;48.234;8.344;2023-04-22T00:28:05;2.25;;;1.30;;
37971;SDS011;23794;48.234;8.344;2023-04-22T00:30:32;4.80;;;1.20;;
37971;SDS011;23794;48.234;8.344;2023-04-22T00:33:00;1.65;;;1.10;;
37971;SDS011;23794;48.234;8.344;2023-04-22T00:35:27;2.10;;;1.17;;
37971;SDS011;23794;48.234;8.344;2023-04-22T00:37:54;1.92;;;1.10;;
37971;SDS011;23794;48.234;8.344;2023-04-22T00:40:21;1.73;;;1.27;;
37971;SDS011;23794;48.234;8.344;2023-04-22T00:42:49;3.35;;;1.40;;
37971;SDS011;23794;48.234;8.344;2023-04-22T00:45:16;2.17;;;1.10;;
37971;SDS011;23794;48.234;8.344;2023-04-22T00:47:44;1.80;;;1.05;;
37971;SDS011;23794;48.234;8.344;2023-04-22T00:50:11;1.95;;;1.38;;
37971;SDS011;23794;48.234;8.344;2023-04-22T00:52:38;4.03;;;1.63;;
37971;SDS011;23794;48.234;8.344;2023-04-22T00:55:05;3.90;;;1.35;;
37971;SDS011;23794;48.234;8.344;2023-04-22T00:57:32;2.13;;;1.30;;
37971;SDS011;23794;48.234;8.344;2023-04-22T01:00:00;3.85;;;1.48;;
37971;SDS011;23794;48.234;8.344;2023-04-22T01:02:27;2.92;;;1.65;;
37971;SDS011;23794;48.234;8.344;2023-04-22T01:04:56;2.10;;;1.42;;
37971;SDS011;23794;48.234;8.344;2023-04-22T01:07:23;2.85;;;1.77;;
37971;SDS011;23794;48.234;8.344;2023-04-22T01:09:50;2.65;;;1.17;;
37971;SDS011;23794;48.234;8.344;2023-04-22T01:12:17;1.55;;;1.10;;
37971;SDS011;23794;48.234;8.344;2023-04-22T01:14:43;2.20;;;1.30;;
37971;SDS011;23794;48.234;8.344;2023-04-22T01:17:11;3.40;;;1.60;;
37971;SDS011;23794;48.234;8.344;2023-04-22T01:19:39;3.38;;;1.75;;
37971;SDS011;23794;48.234;8.344;2023-04-22T01:22:07;4.35;;;1.27;;
37971;SDS011;23794;48.234;8.344;2023-04-22T01:24:38;2.45;;;1.25;;
37971;SDS011;23794;48.234;8.344;2023-04-22T01:27:05;2.38;;;1.15;;
37971;SDS011;23794;48.234;8.344;2023-04-22T01:29:32;3.75;;;1.52;;
37971;SDS011;23794;48.234;8.344;2023-04-22T01:31:59;4.60;;;1.70;;
37971;SDS011;23794;48.234;8.344;2023-04-22T01:34:28;2.60;;;1.45;;
37971;SDS011;23794;48.234;8.344;2023-04-22T01:36:55;1.98;;;1.50;;
37971;SDS011;23794;48.234;8.344;2023-04-22T01:39:22;2.40;;;1.42;;
37971;SDS011;23794;48.234;8.344;2023-04-22T01:41:49;2.83;;;1.80;;
37971;SDS011;23794;48.234;8.344;2023-04-22T01:44:16;2.38;;;1.60;;
37971;SDS011;23794;48.234;8.344;2023-04-22T01:46:44;3.08;;;2.10;;
37971;SDS011;23794;48.234;8.344;2023-04-22T01:49:11;2.90;;;1.90;;
37971;SDS011;23794;48.234;8.344;2023-04-22T01:51:38;4.07;;;1.80;;
37971;SDS011;23794;48.234;8.344;2023-04-22T01:54:05;3.47;;;2.03;;
37971;SDS011;23794;48.234;8.344;2023-04-22T01:56:32;3.67;;;2.20;;
37971;SDS011;23794;48.234;8.344;2023-04-22T01:58:58;2.92;;;1.73;;
37971;SDS011;23794;48.234;8.344;2023-04-22T02:01:27;2.80;;;1.55;;
37971;SDS011;23794;48.234;8.344;2023-04-22T02:03:54;6.25;;;2.05;;
37971;SDS011;23794;48.234;8.344;2023-04-22T02:06:21;2.20;;;1.60;;
37971;SDS011;23794;48.234;8.344;2023-04-22T02:08:49;2.70;;;2.00;;
37971;SDS011;23794;48.234;8.344;2023-04-22T02:11:15;5.25;;;2.03;;
37971;SDS011;23794;48.234;8.344;2023-04-22T02:13:42;4.07;;;2.60;;
37971;SDS011;23794;48.234;8.344;2023-04-22T02:16:09;4.80;;;1.92;;
37971;SDS011;23794;48.234;8.344;2023-04-22T02:18:36;3.53;;;2.45;;
37971;SDS011;23794;48.234;8.344;2023-04-22T02:21:06;3.08;;;2.03;;
37971;SDS011;23794;48.234;8.344;2023-04-22T02:23:33;2.95;;;1.75;;
37971;SDS011;23794;48.234;8.344;2023-04-22T02:26:01;2.80;;;2.00;;
37971;SDS011;23794;48.234;8.344;2023-04-22T02:28:29;2.53;;;1.83;;
37971;SDS011;23794;48.234;8.344;2023-04-22T02:30:56;2.85;;;2.08;;
37971;SDS011;23794;48.234;8.344;2023-04-22T02:33:23;2.95;;;1.52;;
37971;SDS011;23794;48.234;8.344;2023-04-22T02:35:51;2.30;;;1.48;;
37971;SDS011;23794;48.234;8.344;2023-04-22T02:38:18;2.92;;;1.63;;
37971;SDS011;23794;48.234;8.344;2023-04-22T02:40:45;3.85;;;1.60;;
37971;SDS011;23794;48.234;8.344;2023-04-22T02:43:12;2.40;;;1.77;;
37971;SDS011;23794;48.234;8.344;2023-04-22T02:45:39;1.88;;;1.30;;
37971;SDS011;23794;48.234;8.344;2023-04-22T02:48:06;2.83;;;1.58;;
37971;SDS011;23794;48.234;8.344;2023-04-22T02:50:34;2.45;;;1.60;;
37971;SDS011;23794;48.234;8.344;2023-04-22T02:53:05;4.93;;;1.75;;
37971;SDS011;23794;48.234;8.344;2023-04-22T02:55:31;1.77;;;1.20;;
37971;SDS011;23794;48.234;8.344;2023-04-22T02:57:58;3.17;;;1.50;;
37971;SDS011;23794;48.234;8.344;2023-04-22T03:00:25;2.50;;;1.67;;
37971;SDS011;23794;48.234;8.344;2023-04-22T03:02:53;1.65;;;1.15;;
37971;SDS011;23794;48.234;8.344;2023-04-22T03:05:24;3.70;;;1.25;;
37971;SDS011;23794;48.234;8.344;2023-04-22T03:07:51;2.65;;;1.20;;
37971;SDS011;23794;48.234;8.344;2023-04-22T03:10:19;1.48;;;1.15;;
37971;SDS011;23794;48.234;8.344;2023-04-22T03:12:46;2.35;;;1.02;;
37971;SDS011;23794;48.234;8.344;2023-04-22T03:15:14;1.55;;;1.20;;
37971;SDS011;23794;48.234;8.344;2023-04-22T03:17:44;2.22;;;1.40;;
37971;SDS011;23794;48.234;8.344;2023-04-22T03:20:13;2.45;;;1.63;;
37971;SDS011;23794;48.234;8.344;2023-04-22T03:22:41;2.00;;;1.13;;
37971;SDS011;23794;48.234;8.344;2023-04-22T03:25:10;2.38;;;1.42;;
37971;SDS011;23794;48.234;8.344;2023-04-22T03:27:37;6.65;;;1.50;;
37971;SDS011;23794;48.234;8.344;2023-04-22T03:30:04;4.53;;;1.50;;
37971;SDS011;23794;48.234;8.344;2023-04-22T03:32:32;3.10;;;1.55;;
37971;SDS011;23794;48.234;8.344;2023-04-22T03:35:14;1.90;;;1.48;;
37971;SDS011;23794;48.234;8.344;2023-04-22T03:37:44;2.55;;;1.67;;
37971;SDS011;23794;48.234;8.344;2023-04-22T03:40:13;5.30;;;2.03;;
37971;SDS011;23794;48.234;8.344;2023-04-22T03:42:41;7.30;;;1.67;;
37971;SDS011;23794;48.234;8.344;2023-04-22T03:45:09;4.07;;;1.60;;
37971;SDS011;23794;48.234;8.344;2023-04-22T03:47:41;1.98;;;1.70;;
37971;SDS011;23794;48.234;8.344;2023-04-22T03:50:18;1.75;;;1.20;;
37971;SDS011;23794;48.234;8.344;2023-04-22T03:52:46;2.58;;;1.45;;
37971;SDS011;23794;48.234;8.344;2023-04-22T03:55:17;4.38;;;1.60;;
37971;SDS011;23794;48.234;8.344;2023-04-22T03:57:45;2.08;;;1.40;;
37971;SDS011;23794;48.234;8.344;2023-04-22T04:00:12;2.38;;;1.52;;
37971;SDS011;23794;48.234;8.344;2023-04-22T04:02:48;2.92;;;1.60;;
37971;SDS011;23794;48.234;8.344;2023-04-22T04:05:17;4.25;;;1.48;;
37971;SDS011;23794;48.234;8.344;2023-04-22T04:07:45;2.45;;;1.10;;
37971;SDS011;23794;48.234;8.344;2023-04-22T04:10:12;3.47;;;1.50;;
37971;SDS011;23794;48.234;8.344;2023-04-22T04:12:39;6.88;;;1.35;;
37971;SDS011;23794;48.234;8.344;2023-04-22T04:15:06;8.80;;;1.60;;
37971;SDS011;23794;48.234;8.344;2023-04-22T04:17:34;3.55;;;1.50;;
37971;SDS011;23794;48.234;8.344;2023-04-22T04:20:03;3.13;;;1.30;;
37971;SDS011;23794;48.234;8.344;2023-04-22T04:22:30;1.83;;;1.38;;
37971;SDS011;23794;48.234;8.344;2023-04-22T04:25:02;2.75;;;1.60;;
37971;SDS011;23794;48.234;8.344;2023-04-22T04:27:34;3.28;;;1.67;;
37971;SDS011;23794;48.234;8.344;2023-04-22T04:30:00;3.67;;;1.50;;
37971;SDS011;23794;48.234;8.344;2023-04-22T04:32:37;2.03;;;1.50;;
37971;SDS011;23794;48.234;8.344;2023-04-22T04:35:07;5.20;;;2.00;;
37971;SDS011;23794;48.234;8.344;2023-04-22T04:37:35;7.22;;;2.00;;
37971;SDS011;23794;48.234;8.344;2023-04-22T04:40:07;2.63;;;1.70;;
37971;SDS011;23794;48.234;8.344;2023-04-22T04:42:47;3.10;;;1.40;;
37971;SDS011;23794;48.234;8.344;2023-04-22T04:45:19;4.47;;;1.90;;
37971;SDS011;23794;48.234;8.344;2023-04-22T04:47:48;3.30;;;1.55;;
37971;SDS011;23794;48.234;8.344;2023-04-22T04:50:29;2.38;;;1.75;;
37971;SDS011;23794;48.234;8.344;2023-04-22T04:52:59;3.22;;;1.60;;
37971;SDS011;23794;48.234;8.344;2023-04-22T04:55:34;4.10;;;2.58;;
37971;SDS011;23794;48.234;8.344;2023-04-22T04:58:06;3.25;;;1.90;;
37971;SDS011;23794;48.234;8.344;2023-04-22T05:00:32;3.33;;;1.50;;
37971;SDS011;23794;48.234;8.344;2023-04-22T05:02:59;2.63;;;1.70;;
37971;SDS011;23794;48.234;8.344;2023-04-22T05:05:27;3.40;;;1.50;;
37971;SDS011;23794;48.234;8.344;2023-04-22T05:07:54;4.88;;;1.67;;
37971;SDS011;23794;48.234;8.344;2023-04-22T05:10:21;2.58;;;1.83;;
37971;SDS011;23794;48.234;8.344;2023-04-22T05:12:48;3.83;;;1.48;;
37971;SDS011;23794;48.234;8.344;2023-04-22T05:15:20;4.80;;;1.42;;
37971;SDS011;23794;48.234;8.344;2023-04-22T05:17:47;3.05;;;1.80;;
37971;SDS011;23794;48.234;8.344;2023-04-22T05:20:14;2.42;;;1.70;;
37971;SDS011;23794;48.234;8.344;2023-04-22T05:22:41;2.83;;;1.77;;
37971;SDS011;23794;48.234;8.344;2023-04-22T05:25:08;2.85;;;1.50;;
37971;SDS011;23794;48.234;8.344;2023-04-22T05:27:40;2.22;;;1.83;;
37971;SDS011;23794;48.234;8.344;2023-04-22T05:30:08;2.55;;;1.55;;
37971;SDS011;23794;48.234;8.344;2023-04-22T05:32:37;2.50;;;1.90;;
37971;SDS011;23794;48.234;8.344;2023-04-22T05:35:04;3.55;;;1.85;;
37971;SDS011;23794;48.234;8.344;2023-04-22T05:37:33;2.45;;;1.50;;
37971;SDS011;23794;48.234;8.344;2023-04-22T05:40:00;2.35;;;1.70;;
37971;SDS011;23794;48.234;8.344;2023-04-22T05:42:28;3.15;;;1.90;;
37971;SDS011;23794;48.234;8.344;2023-04-22T05:44:54;2.33;;;1.70;;
37971;SDS011;23794;48.234;8.344;2023-04-22T05:47:21;4.65;;;1.88;;
37971;SDS011;23794;48.234;8.344;2023-04-22T05:49:49;2.30;;;1.48;;
37971;SDS011;23794;48.234;8.344;2023-04-22T05:52:23;3.58;;;2.58;;
37971;SDS011;23794;48.234;8.344;2023-04-22T05:55:00;2.10;;;1.55;;
37971;SDS011;23794;48.234;8.344;2023-04-22T05:57:27;3.45;;;1.60;;
37971;SDS011;23794;48.234;8.344;2023-04-22T05:59:55;5.57;;;1.67;;
37971;SDS011;23794;48.234;8.344;2023-04-22T06:02:22;3.92;;;2.10;;
37971;SDS011;23794;48.234;8.344;2023-04-22T06:04:49;3.38;;;1.65;;
37971;SDS011;23794;48.234;8.344;2023-04-22T06:07:16;3.60;;;1.60;;
37971;SDS011;23794;48.234;8.344;2023-04-22T06:09:43;3.95;;;1.48;;
37971;SDS011;23794;48.234;8.344;2023-04-22T06:12:10;1.38;;;1.05;;
37971;SDS011;23794;48.234;8.344;2023-04-22T06:14:37;2.10;;;1.65;;
37971;SDS011;23794;48.234;8.344;2023-04-22T06:17:07;2.40;;;1.20;;
37971;SDS011;23794;48.234;8.344;2023-04-22T06:19:39;3.70;;;1.60;;
37971;SDS011;23794;48.234;8.344;2023-04-22T06:22:08;7.20;;;1.60;;
37971;SDS011;23794;48.234;8.344;2023-04-22T06:24:35;1.90;;;1.40;;
37971;SDS011;23794;48.234;8.344;2023-04-22T06:27:01;3.17;;;1.88;;
37971;SDS011;23794;48.234;8.344;2023-04-22T06:29:29;2.00;;;1.38;;
37971;SDS011;23794;48.234;8.344;2023-04-22T06:31:56;3.00;;;1.40;;
37971;SDS011;23794;48.234;8.344;2023-04-22T06:34:23;2.20;;;1.67;;
37971;SDS011;23794;48.234;8.344;2023-04-22T06:36:51;3.72;;;1.48;;
37971;SDS011;23794;48.234;8.344;2023-04-22T06:39:30;1.88;;;1.50;;
37971;SDS011;23794;48.234;8.344;2023-04-22T06:42:06;2.00;;;1.60;;
37971;SDS011;23794;48.234;8.344;2023-04-22T06:44:59;2.00;;;1.40;;
37971;SDS011;23794;48.234;8.344;2023-04-22T06:47:40;2.28;;;1.48;;
37971;SDS011;23794;48.234;8.344;2023-04-22T06:50:21;3.43;;;1.77;;
37971;SDS011;23794;48.234;8.344;2023-04-22T06:52:52;1.40;;;0.80;;
37971;SDS011;23794;48.234;8.344;2023-04-22T06:55:22;2.78;;;0.90;;
37971;SDS011;23794;48.234;8.344;2023-04-22T06:57:50;5.10;;;0.80;;
37971;SDS011;23794;48.234;8.344;2023-04-22T07:00:18;1.77;;;1.13;;
37971;SDS011;23794;48.234;8.344;2023-04-22T07:02:45;4.28;;;1.10;;
37971;SDS011;23794;48.234;8.344;2023-04-22T07:05:14;1.88;;;1.10;;
37971;SDS011;23794;48.234;8.344;2023-04-22T07:07:46;1.42;;;0.73;;
37971;SDS011;23794;48.234;8.344;2023-04-22T07:10:18;3.70;;;0.90;;
37971;SDS011;23794;48.234;8.344;2023-04-22T07:13:05;1.52;;;0.80;;
37971;SDS011;23794;48.234;8.344;2023-04-22T07:15:32;3.83;;;1.42;;
37971;SDS011;23794;48.234;8.344;2023-04-22T07:17:59;3.20;;;1.10;;
37971;SDS011;23794;48.234;8.344;2023-04-22T07:20:28;3.90;;;1.00;;
37971;SDS011;23794;48.234;8.344;2023-04-22T07:22:55;2.30;;;1.10;;
37971;SDS011;23794;48.234;8.344;2023-04-22T07:25:25;3.35;;;1.27;;
37971;SDS011;23794;48.234;8.344;2023-04-22T07:27:52;2.40;;;1.60;;
37971;SDS011;23794;48.234;8.344;2023-04-22T07:30:18;3.28;;;1.50;;
37971;SDS011;23794;48.234;8.344;2023-04-22T07:32:45;4.07;;;1.67;;
37971;SDS011;23794;48.234;8.344;2023-04-22T07:35:14;2.92;;;1.40;;
37971;SDS011;23794;48.234;8.344;2023-04-22T07:37:44;2.45;;;1.23;;
37971;SDS011;23794;48.234;8.344;2023-04-22T07:40:13;1.25;;;0.77;;
37971;SDS011;23794;48.234;8.344;2023-04-22T07:42:45;1.58;;;0.80;;
37971;SDS011;23794;48.234;8.344;2023-04-22T07:45:13;1.60;;;0.93;;
37971;SDS011;23794;48.234;8.344;2023-04-22T07:47:41;1.55;;;0.70;;
37971;SDS011;23794;48.234;8.344;2023-04-22T07:50:10;3.70;;;2.28;;
37971;SDS011;23794;48.234;8.344;2023-04-22T07:52:40;3.50;;;2.17;;
37971;SDS011;23794;48.234;8.344;2023-04-22T07:55:13;3.33;;;1.27;;
37971;SDS011;23794;48.234;8.344;2023-04-22T07:57:43;4.07;;;0.95;;
37971;SDS011;23794;48.234;8.344;2023-04-22T08:00:10;2.63;;;0.93;;
37971;SDS011;23794;48.234;8.344;2023-04-22T08:02:39;1.45;;;0.90;;
37971;SDS011;23794;48.234;8.344;2023-04-22T08:05:08;1.42;;;1.00;;
37971;SDS011;23794;48.234;8.344;2023-04-22T08:07:35;2.65;;;1.00;;
37971;SDS011;23794;48.234;8.344;2023-04-22T08:10:57;1.88;;;1.17;;
37971;SDS011;23794;48.234;8.344;2023-04-22T08:13:25;1.40;;;0.88;;
37971;SDS011;23794;48.234;8.344;2023-04-22T08:15:51;1.77;;;1.10;;
37971;SDS011;23794;48.234;8.344;2023-04-22T08:18:19;3.47;;;1.17;;
37971;SDS011;23794;48.234;8.344;2023-04-22T08:20:46;2.42;;;1.35;;
37971;SDS011;23794;48.234;8.344;2023-04-22T08:23:13;2.72;;;1.00;;
37971;SDS011;23794;48.234;8.344;2023-04-22T08:25:40;3.38;;;1.27;;
37971;SDS011;23794;48.234;8.344;2023-04-22T08:28:07;2.83;;;1.05;;
37971;SDS011;23794;48.234;8.344;2023-04-22T08:30:35;2.65;;;0.82;;
37971;SDS011;23794;48.234;8.344;2023-04-22T08:33:02;2.00;;;0.95;;
37971;SDS011;23794;48.234;8.344;2023-04-22T08:35:29;2.28;;;1.35;;
37971;SDS011;23794;48.234;8.344;2023-04-22T08:37:56;2.20;;;1.13;;
37971;SDS011;23794;48.234;8.344;2023-04-22T08:40:23;6.78;;;1.23;;
37971;SDS011;23794;48.234;8.344;2023-04-22T08:42:49;2.53;;;1.25;;
37971;SDS011;23794;48.234;8.344;2023-04-22T08:45:17;2.63;;;1.30;;
37971;SDS011;23794;48.234;8.344;2023-04-22T08:47:44;5.68;;;1.13;;
37971;SDS011;23794;48.234;8.344;2023-04-22T08:50:11;3.00;;;1.20;;
37971;SDS011;23794;48.234;8.344;2023-04-22T08:52:40;2.17;;;0.95;;
37971;SDS011;23794;48.234;8.344;2023-04-22T08:55:08;4.00;;;1.30;;
37971;SDS011;23794;48.234;8.344;2023-04-22T08:57:35;3.35;;;1.20;;
37971;SDS011;23794;48.234;8.344;2023-04-22T09:00:03;2.10;;;1.30;;
37971;SDS011;23794;48.234;8.344;2023-04-22T09:02:31;3.35;;;1.27;;
37971;SDS011;23794;48.234;8.344;2023-04-22T09:05:01;4.47;;;1.55;;
37971;SDS011;23794;48.234;8.344;2023-04-22T09:07:32;2.13;;;1.40;;
37971;SDS011;23794;48.234;8.344;2023-04-22T09:10:00;2.42;;;1.02;;
37971;SDS011;23794;48.234;8.344;2023-04-22T09:12:27;2.75;;;1.33;;
37971;SDS011;23794;48.234;8.344;2023-04-22T09:14:54;3.03;;;0.95;;
37971;SDS011;23794;48.234;8.344;2023-04-22T09:17:33;1.70;;;1.02;;
37971;SDS011;23794;48.234;8.344;2023-04-22T09:20:04;3.35;;;1.10;;
37971;SDS011;23794;48.234;8.344;2023-04-22T09:22:36;4.07;;;2.40;;
37971;SDS011;23794;48.234;8.344;2023-04-22T09:25:18;3.05;;;2.03;;
37971;SDS011;23794;48.234;8.344;2023-04-22T09:27:54;2.78;;;1.05;;
37971;SDS011;23794;48.234;8.344;2023-04-22T09:30:43;3.97;;;1.15;;
37971;SDS011;23794;48.234;8.344;2023-04-22T09:33:10;3.08;;;1.10;;
37971;SDS011;23794;48.234;8.344;2023-04-22T09:35:41;3.83;;;1.30;;
37971;SDS011;23794;48.234;8.344;2023-04-22T09:38:10;3.30;;;1.27;;
37971;SDS011;23794;48.234;8.344;2023-04-22T09:40:40;1.98;;;1.17;;
37971;SDS011;23794;48.234;8.344;2023-04-22T09:43:08;2.10;;;1.00;;
37971;SDS011;23794;48.234;8.344;2023-04-22T09:45:40;1.77;;;0.93;;
37971;SDS011;23794;48.234;8.344;2023-04-22T09:48:08;2.45;;;1.10;;
37971;SDS011;23794;48.234;8.344;2023-04-22T09:50:43;2.83;;;1.20;;
37971;SDS011;23794;48.234;8.344;2023-04-22T09:53:16;2.53;;;1.33;;
37971;SDS011;23794;48.234;8.344;2023-04-22T09:55:45;5.18;;;1.25;;
37971;SDS011;23794;48.234;8.344;2023-04-22T09:58:14;1.80;;;1.00;;
37971;SDS011;23794;48.234;8.344;2023-04-22T10:00:49;2.65;;;1.58;;
37971;SDS011;23794;48.234;8.344;2023-04-22T10:03:18;1.80;;;1.13;;
37971;SDS011;23794;48.234;8.344;2023-04-22T10:05:45;1.70;;;1.27;;
37971;SDS011;23794;48.234;8.344;2023-04-22T10:08:13;2.95;;;1.17;;
37971;SDS011;23794;48.234;8.344;2023-04-22T10:10:41;2.47;;;1.30;;
37971;SDS011;23794;48.234;8.344;2023-04-22T10:13:08;6.53;;;1.40;;
37971;SDS011;23794;48.234;8.344;2023-04-22T10:15:38;5.50;;;1.05;;
37971;SDS011;23794;48.234;8.344;2023-04-22T10:18:09;3.75;;;1.23;;
37971;SDS011;23794;48.234;8.344;2023-04-22T10:20:39;2.13;;;0.98;;
37971;SDS011;23794;48.234;8.344;2023-04-22T10:23:14;2.05;;;0.98;;
37971;SDS011;23794;48.234;8.344;2023-04-22T10:25:47;5.07;;;1.63;;
37971;SDS011;23794;48.234;8.344;2023-04-22T10:28:20;2.92;;;1.23;;
37971;SDS011;23794;48.234;8.344;2023-04-22T10:30:49;3.03;;;1.20;;
37971;SDS011;23794;48.234;8.344;2023-04-22T10:36:11;2.65;;;1.10;;
37971;SDS011;23794;48.234;8.344;2023-04-22T10:41:15;2.15;;;1.40;;
37971;SDS011;23794;48.234;8.344;2023-04-22T10:43:54;1.92;;;1.15;;
37971;SDS011;23794;48.234;8.344;2023-04-22T10:49:10;2.45;;;1.20;;
37971;SDS011;23794;48.234;8.344;2023-04-22T10:51:42;2.80;;;1.40;;
37971;SDS011;23794;48.234;8.344;2023-04-22T10:57:09;2.72;;;1.10;;
37971;SDS011;23794;48.234;8.344;2023-04-22T10:59:45;3.33;;;1.10;;
37971;SDS011;23794;48.234;8.344;2023-04-22T11:02:20;3.75;;;0.95;;
37971;SDS011;23794;48.234;8.344;2023-04-22T11:04:48;1.55;;;1.00;;
37971;SDS011;23794;48.234;8.344;2023-04-22T11:09:49;4.32;;;1.42;;
37971;SDS011;23794;48.234;8.344;2023-04-22T11:15:08;3.65;;;1.17;;
37971;SDS011;23794;48.234;8.344;2023-04-22T11:17:43;1.30;;;0.98;;
37971;SDS011;23794;48.234;8.344;2023-04-22T11:20:11;2.75;;;1.38;;
37971;SDS011;23794;48.234;8.344;2023-04-22T11:22:41;2.15;;;0.88;;
37971;SDS011;23794;48.234;8.344;2023-04-22T11:25:09;2.88;;;1.27;;
37971;SDS011;23794;48.234;8.344;2023-04-22T11:27:36;3.08;;;1.00;;
37971;SDS011;23794;48.234;8.344;2023-04-22T11:30:05;4.72;;;1.77;;
37971;SDS011;23794;48.234;8.344;2023-04-22T11:32:47;4.78;;;2.13;;
37971;SDS011;23794;48.234;8.344;2023-04-22T11:35:19;2.60;;;1.30;;
37971;SDS011;23794;48.234;8.344;2023-04-22T11:37:50;2.03;;;1.33;;
37971;SDS011;23794;48.234;8.344;2023-04-22T11:40:22;2.08;;;1.33;;
37971;SDS011;23794;48.234;8.344;2023-04-22T11:42:58;3.88;;;1.33;;
37971;SDS011;23794;48.234;8.344;2023-04-22T11:45:27;2.40;;;1.23;;
37971;SDS011;23794;48.234;8.344;2023-04-22T11:47:55;2.53;;;1.52;;
37971;SDS011;23794;48.234;8.344;2023-04-22T11:50:23;2.63;;;1.30;;
37971;SDS011;23794;48.234;8.344;2023-04-22T11:52:59;4.03;;;1.17;;
37971;SDS011;23794;48.234;8.344;2023-04-22T11:55:30;1.90;;;1.05;;
37971;SDS011;23794;48.234;8.344;2023-04-22T11:58:06;9.10;;;7.60;;
37971;SDS011;23794;48.234;8.344;2023-04-22T12:00:39;6.85;;;4.95;;
37971;SDS011;23794;48.234;8.344;2023-04-22T12:03:13;5.10;;;2.10;;
37971;SDS011;23794;48.234;8.344;2023-04-22T12:05:45;12.13;;;7.70;;
37971;SDS011;23794;48.234;8.344;2023-04-22T12:08:20;46.88;;;32.78;;
37971;SDS011;23794;48.234;8.344;2023-04-22T12:10:52;53.47;;;40.03;;
37971;SDS011;23794;48.234;8.344;2023-04-22T12:13:22;47.55;;;31.98;;
37971;SDS011;23794;48.234;8.344;2023-04-22T12:16:00;102.28;;;74.68;;
37971;SDS011;23794;48.234;8.344;2023-04-22T12:18:34;32.83;;;21.98;;
37971;SDS011;23794;48.234;8.344;2023-04-22T12:23:41;3.67;;;2.70;;
37971;SDS011;23794;48.234;8.344;2023-04-22T12:26:15;4.75;;;1.80;;
37971;SDS011;23794;48.234;8.344;2023-04-22T12:28:43;5.47;;;3.25;;
37971;SDS011;23794;48.234;8.344;2023-04-22T12:31:12;3.80;;;2.28;;
37971;SDS011;23794;48.234;8.344;2023-04-22T12:33:39;4.60;;;1.80;;
37971;SDS011;23794;48.234;8.344;2023-04-22T12:36:06;2.88;;;1.50;;
37971;SDS011;23794;48.234;8.344;2023-04-22T12:38:33;3.50;;;1.60;;
37971;SDS011;23794;48.234;8.344;2023-04-22T12:41:00;3.63;;;1.50;;
37971;SDS011;23794;48.234;8.344;2023-04-22T12:43:28;5.43;;;1.83;;
37971;SDS011;23794;48.234;8.344;2023-04-22T12:45:57;3.85;;;1.30;;
37971;SDS011;23794;48.234;8.344;2023-04-22T12:48:24;2.85;;;1.40;;
37971;SDS011;23794;48.234;8.344;2023-04-22T12:50:51;2.65;;;1.27;;
37971;SDS011;23794;48.234;8.344;2023-04-22T12:53:19;7.25;;;2.05;;
37971;SDS011;23794;48.234;8.344;2023-04-22T12:55:49;2.78;;;1.27;;
37971;SDS011;23794;48.234;8.344;2023-04-22T12:58:15;2.83;;;1.30;;
37971;SDS011;23794;48.234;8.344;2023-04-22T13:00:42;3.13;;;1.30;;
37971;SDS011;23794;48.234;8.344;2023-04-22T13:03:09;3.35;;;1.48;;
37971;SDS011;23794;48.234;8.344;2023-04-22T13:05:38;3.05;;;1.60;;
37971;SDS011;23794;48.234;8.344;2023-04-22T13:08:08;5.43;;;1.35;;
37971;SDS011;23794;48.234;8.344;2023-04-22T13:10:34;5.10;;;1.30;;
37971;SDS011;23794;48.234;8.344;2023-04-22T13:13:01;2.63;;;1.33;;
37971;SDS011;23794;48.234;8.344;2023-04-22T13:15:47;2.33;;;1.02;;
37971;SDS011;23794;48.234;8.344;2023-04-22T13:18:18;3.88;;;1.30;;
37971;SDS011;23794;48.234;8.344;2023-04-22T13:20:49;3.58;;;1.67;;
37971;SDS011;23794;48.234;8.344;2023-04-22T13:23:16;2.40;;;1.42;;
37971;SDS011;23794;48.234;8.344;2023-04-22T13:25:45;5.80;;;3.90;;
37971;SDS011;23794;48.234;8.344;2023-04-22T13:28:13;5.05;;;1.60;;
37971;SDS011;23794;48.234;8.344;2023-04-22T13:30:40;2.55;;;1.20;;
37971;SDS011;23794;48.234;8.344;2023-04-22T13:33:07;2.17;;;1.35;;
37971;SDS011;23794;48.234;8.344;2023-04-22T13:35:34;2.92;;;1.23;;
37971;SDS011;23794;48.234;8.344;2023-04-22T13:38:01;3.55;;;1.45;;
37971;SDS011;23794;48.234;8.344;2023-04-22T13:40:28;3.55;;;1.52;;
37971;SDS011;23794;48.234;8.344;2023-04-22T13:43:06;5.60;;;1.83;;
37971;SDS011;23794;48.234;8.344;2023-04-22T13:45:35;2.60;;;1.13;;
37971;SDS011;23794;48.234;8.344;2023-04-22T13:48:03;5.18;;;1.67;;
37971;SDS011;23794;48.234;8.344;2023-04-22T13:50:30;2.38;;;1.20;;
37971;SDS011;23794;48.234;8.344;2023-04-22T13:52:56;3.90;;;1.58;;
37971;SDS011;23794;48.234;8.344;2023-04-22T13:55:23;1.80;;;1.23;;
37971;SDS011;23794;48.234;8.344;2023-04-22T13:57:51;2.53;;;1.45;;
37971;SDS011;23794;48.234;8.344;2023-04-22T14:00:18;3.35;;;1.48;;
37971;SDS011;23794;48.234;8.344;2023-04-22T14:02:46;2.85;;;1.40;;
37971;SDS011;23794;48.234;8.344;2023-04-22T14:05:13;1.40;;;1.10;;
37971;SDS011;23794;48.234;8.344;2023-04-22T14:07:39;1.80;;;1.15;;
37971;SDS011;23794;48.234;8.344;2023-04-22T14:10:06;2.35;;;1.13;;
37971;SDS011;23794;48.234;8.344;2023-04-22T14:12:33;4.20;;;1.40;;
37971;SDS011;23794;48.234;8.344;2023-04-22T14:15:00;2.97;;;1.42;;
37971;SDS011;23794;48.234;8.344;2023-04-22T14:17:27;4.93;;;1.70;;
37971;SDS011;23794;48.234;8.344;2023-04-22T14:19:53;2.95;;;1.40;;
37971;SDS011;23794;48.234;8.344;2023-04-22T14:22:20;2.75;;;1.40;;
37971;SDS011;23794;48.234;8.344;2023-04-22T14:24:47;2.63;;;1.30;;
37971;SDS011;23794;48.234;8.344;2023-04-22T14:27:13;3.03;;;1.58;;
37971;SDS011;23794;48.234;8.344;2023-04-22T14:29:40;2.45;;;1.65;;
37971;SDS011;23794;48.234;8.344;2023-04-22T14:32:08;1.95;;;1.30;;
37971;SDS011;23794;48.234;8.344;2023-04-22T14:34:34;4.95;;;1.27;;
37971;SDS011;23794;48.234;8.344;2023-04-22T14:37:01;3.85;;;1.25;;
37971;SDS011;23794;48.234;8.344;2023-04-22T14:39:27;2.70;;;1.40;;
37971;SDS011;23794;48.234;8.344;2023-04-22T14:41:54;4.15;;;1.75;;
37971;SDS011;23794;48.234;8.344;2023-04-22T14:44:23;2.55;;;1.58;;
37971;SDS011;23794;48.234;8.344;2023-04-22T14:46:49;3.72;;;1.48;;
37971;SDS011;23794;48.234;8.344;2023-04-22T14:49:16;3.28;;;1.60;;
37971;SDS011;23794;48.234;8.344;2023-04-22T14:51:43;4.10;;;1.27;;
37971;SDS011;23794;48.234;8.344;2023-04-22T14:54:09;4.07;;;1.13;;
37971;SDS011;23794;48.234;8.344;2023-04-22T14:56:36;3.80;;;1.35;;
37971;SDS011;23794;48.234;8.344;2023-04-22T14:59:02;4.72;;;1.50;;
37971;SDS011;23794;48.234;8.344;2023-04-22T15:01:30;6.53;;;1.70;;
37971;SDS011;23794;48.234;8.344;2023-04-22T15:03:56;1.88;;;1.50;;
37971;SDS011;23794;48.234;8.344;2023-04-22T15:06:23;4.70;;;1.88;;
37971;SDS011;23794;48.234;8.344;2023-04-22T15:08:50;4.75;;;1.60;;
37971;SDS011;23794;48.234;8.344;2023-04-22T15:11:17;2.30;;;1.42;;
37971;SDS011;23794;48.234;8.344;2023-04-22T15:13:51;2.08;;;1.33;;
37971;SDS011;23794;48.234;8.344;2023-04-22T15:16:19;2.22;;;1.38;;
37971;SDS011;23794;48.234;8.344;2023-04-22T15:18:45;2.08;;;1.23;;